CPX763 Details

Departure: Liège Airport (EBLG)
Arrival: Incheon International Airport (RKSI) at N/A
Route: LNO5E LNO BEDSI Z671 TOBAK N858 MOSEX GOVEN L979 GRD T509 BUGOR G724 TE R364 IWV R364 US G901 BW A943 ARISA G3 AKB A113 TOMGO A355 MNS L147 KAMUD W186 SADAN W187 TUSLI W112 BILDA W619 CHW V67 YBL W199 YHD B215 VYK A326 DONVO G597 GONAV GONAV2M
Notes:


Current Weather Information
EBLG 171650Z 19010KT 9999 -RA FEW012 BKN017 19/17 Q1009 NOSIG
RKSI 171700Z 26005KT CAVOK 23/18 Q1004 NOSIG